Washington, DC (20560)

1:11 PM EDT on July 28, 2015 (GMT -0400)
H Street Corridor - NoMa | | Change Station
CLOSE
Current Station
Personal Weather Station
Location: Washington, DC
Elevation: 56 ft
Nearby Weather Stations

Elev 56 ft 38.90 °N, 77.00 °W | Updated 10 seconds ago

Scattered Clouds
Scattered Clouds
90.3 °F
Feels Like 100 °F
N
1.0
Wind Variable Wind from ENE
Gusts 5.0 mph

Today
High -- | Low -- °F
--% Chance of Precip.
Yesterday
High -- | Low -- °F
Precip. -- in
6:05 AM 8:23 PM
Waxing Gibbous, 90% visible
Pressure 30.01 in
Visibility 10.0 miles
Clouds Scattered Clouds 3500 ft
Scattered Clouds 10000 ft
Scattered Clouds 25000 ft
Heat Index 100 °F
Dew Point 74 °F
Humidity 60%
Rainfall 0.00 in
Snow Depth Not available.
UV 9 out of 12
Pollen 4.50 out of 12
Air Quality Not available.
Flu Activity Not available.
METAR KDCA 281652Z 00000KT 10SM SCT035 SCT100 SCT250 33/23 A3000 RMK AO2 SLP160 T03330228

More Conditions Fewer Conditions

Pressure 30.01 in
Visibility 10.0 miles
Clouds Scattered Clouds 3500 ft
Scattered Clouds 10000 ft
Scattered Clouds 25000 ft
Heat Index 100 °F
Dew Point 74 °F
Humidity 60%
Rainfall 0.00 in
Snow Depth Not available.
UV 9 out of 12
Pollen 4.50 out of 12
Air Quality Not available.
Flu Activity Not available.
METAR KDCA 281652Z 00000KT 10SM SCT035 SCT100 SCT250 33/23 A3000 RMK AO2 SLP160 T03330228

More Conditions Fewer Conditions

10-Day Weather Forecast

×

Almanac

Astronomy

Jul. 28, 2015 Rise Set
Actual Time
Civil Twilight
Nautical Twilight
Astronomical Twilight
Moon
Length of Visible Light
Length of Day
Tomorrow will be .
, % of the Moon is Illuminated

Today's Extremes

State Highs State Lows

Community

WunderPhotos

Upload Photos

1,841,895 photos uploaded!

WunderBlogs® & News

Nearby

Air Quality

  Air Quality AQ Index Pollutant
Not available.

Snow Depth

Station Depth Elevation

Earthquake Activity

City Distance Mag. Time & Date
Minimum magnitude displayed is 2.5.

Coastal Water Temperatures

Place Temperature

Stations

Nearby Weather Stations

Station Location Temp. Windchill Dew Point Humidity Wind Precip. Elev Updated Type